createdAt,value
2022-11-05T00:02:50.442Z,97751.00
2022-11-05T00:05:44.174Z,97754.00
2022-11-05T00:08:37.653Z,97756.00
2022-11-05T00:11:17.907Z,97754.00
2022-11-05T00:14:11.465Z,97750.00
2022-11-05T00:16:46.325Z,97747.00
2022-11-05T00:19:21.172Z,97752.00
2022-11-05T00:22:14.573Z,97758.00
2022-11-05T00:25:08.045Z,97772.00
2022-11-05T00:27:45.308Z,97777.00
2022-11-05T00:30:25.703Z,97773.00
2022-11-05T00:33:04.688Z,97778.00
2022-11-05T00:35:39.512Z,97778.00
2022-11-05T00:38:14.576Z,97790.00
2022-11-05T00:40:49.395Z,97778.00
2022-11-05T00:43:43.097Z,97789.00
2022-11-05T00:46:17.991Z,97789.00
2022-11-05T00:49:11.589Z,97784.00
2022-11-05T00:51:46.458Z,97786.00
2022-11-05T00:54:21.313Z,97796.00
2022-11-05T00:56:59.421Z,97798.00
2022-11-05T00:59:38.327Z,97794.00
2022-11-05T01:02:13.296Z,97799.00
2022-11-05T01:04:48.251Z,97805.00
2022-11-05T01:07:23.112Z,97805.00
2022-11-05T01:09:58.019Z,97813.00
2022-11-05T01:12:33.066Z,97809.00
2022-11-05T01:15:08.669Z,97817.00
2022-11-05T01:17:43.583Z,97824.00
2022-11-05T01:20:18.487Z,97817.00
2022-11-05T01:22:53.347Z,97821.00
2022-11-05T01:25:28.337Z,97817.00
2022-11-05T01:28:04.196Z,97817.00
2022-11-05T01:30:39.763Z,97828.00
2022-11-05T01:33:14.844Z,97831.00
2022-11-05T01:35:51.805Z,97834.00
2022-11-05T01:38:26.694Z,97833.00
2022-11-05T01:41:01.732Z,97833.00
2022-11-05T01:43:52.175Z,97833.00
2022-11-05T01:46:39.848Z,97842.00
2022-11-05T01:49:33.363Z,97838.00
2022-11-05T01:52:08.204Z,97839.00
2022-11-05T01:54:43.777Z,97834.00
2022-11-05T01:57:18.835Z,97839.00
2022-11-05T01:59:58.637Z,97836.00
2022-11-05T02:02:33.765Z,97840.00
2022-11-05T02:05:12.230Z,97846.00
2022-11-05T02:07:48.369Z,97845.00
2022-11-05T02:10:23.935Z,97841.00
2022-11-05T02:12:59.336Z,97848.00
2022-11-05T02:15:52.983Z,97849.00
2022-11-05T02:18:56.635Z,97848.00
2022-11-05T02:21:56.028Z,97850.00
2022-11-05T02:25:04.534Z,97848.00
2022-11-05T02:28:27.175Z,97854.00
2022-11-05T02:31:17.520Z,97859.00
2022-11-05T02:34:12.748Z,97855.00
2022-11-05T02:36:58.391Z,97853.00
2022-11-05T02:40:20.677Z,97844.00
2022-11-05T02:43:03.574Z,97849.00
2022-11-05T02:46:06.088Z,97854.00
2022-11-05T02:49:09.030Z,97865.00
2022-11-05T02:51:59.249Z,97864.00
2022-11-05T02:54:50.514Z,97867.00
2022-11-05T02:57:29.187Z,97860.00
2022-11-05T03:00:35.072Z,97858.00
2022-11-05T03:03:35.942Z,97859.00
2022-11-05T03:06:13.451Z,97863.00
2022-11-05T03:09:36.167Z,97854.00
2022-11-05T03:12:43.335Z,97859.00
2022-11-05T03:15:47.625Z,97871.00
2022-11-05T03:19:06.961Z,97873.00
2022-11-05T03:21:56.658Z,97878.00
2022-11-05T03:24:37.485Z,97886.00
2022-11-05T03:27:20.511Z,97884.00
2022-11-05T03:30:06.764Z,97882.00
2022-11-05T03:32:49.756Z,97884.00
2022-11-05T03:35:30.732Z,97890.00
2022-11-05T03:38:15.634Z,97892.00
2022-11-05T03:40:55.547Z,97890.00
2022-11-05T03:43:35.157Z,97891.00
2022-11-05T03:46:17.054Z,97899.00
2022-11-05T03:48:55.910Z,97906.00
2022-11-05T03:52:17.489Z,97900.00
2022-11-05T03:54:52.522Z,97897.00
2022-11-05T03:57:33.077Z,97911.00
2022-11-05T04:00:10.260Z,97910.00
2022-11-05T04:02:47.927Z,97920.00
2022-11-05T04:05:23.035Z,97926.00
2022-11-05T04:08:16.251Z,97921.00
2022-11-05T04:11:09.740Z,97922.00
2022-11-05T04:13:44.617Z,97930.00
2022-11-05T04:16:37.790Z,97935.00
2022-11-05T04:19:12.622Z,97942.00
2022-11-05T04:22:06.000Z,97937.00
2022-11-05T04:24:40.931Z,97943.00
2022-11-05T04:27:15.886Z,97944.00
2022-11-05T04:30:09.213Z,97946.00
2022-11-05T04:33:06.299Z,97954.00
2022-11-05T04:35:47.360Z,97957.00
2022-11-05T04:38:22.290Z,97958.00
2022-11-05T04:41:16.461Z,97962.00
2022-11-05T04:43:51.351Z,97958.00
2022-11-05T04:46:26.265Z,97958.00
2022-11-05T04:49:01.192Z,97966.00
2022-11-05T04:51:36.098Z,97967.00
2022-11-05T04:54:11.118Z,97970.00
2022-11-05T04:56:46.042Z,97966.00
2022-11-05T04:59:20.986Z,97971.00
2022-11-05T05:01:56.000Z,97974.00
2022-11-05T05:04:30.966Z,97978.00
2022-11-05T05:07:05.899Z,97976.00
2022-11-05T05:09:40.817Z,97975.00
2022-11-05T05:12:15.893Z,97976.00
2022-11-05T05:14:50.796Z,97972.00
2022-11-05T05:17:25.856Z,97981.00
2022-11-05T05:20:19.197Z,97990.00
2022-11-05T05:22:55.112Z,97983.00
2022-11-05T05:25:30.263Z,97982.00
2022-11-05T05:28:06.149Z,97989.00
2022-11-05T05:30:41.066Z,97995.00
2022-11-05T05:33:16.937Z,97994.00
2022-11-05T05:35:51.862Z,98001.00
2022-11-05T05:38:26.831Z,98005.00
2022-11-05T05:41:01.758Z,98009.00
2022-11-05T05:43:36.713Z,98011.00
2022-11-05T05:46:14.875Z,98010.00
2022-11-05T05:48:51.742Z,98009.00
2022-11-05T05:51:26.671Z,98006.00
2022-11-05T05:54:01.504Z,98022.00
2022-11-05T05:56:36.473Z,98014.00
2022-11-05T05:59:12.239Z,98014.00
2022-11-05T06:01:47.370Z,98029.00
2022-11-05T06:04:22.407Z,98026.00
2022-11-05T06:06:57.290Z,98034.00
2022-11-05T06:09:32.153Z,98041.00
2022-11-05T06:12:07.218Z,98042.00
2022-11-05T06:14:42.177Z,98045.00
2022-11-05T06:17:17.110Z,98049.00
2022-11-05T06:19:52.138Z,98054.00
2022-11-05T06:22:27.036Z,98045.00
2022-11-05T06:25:01.978Z,98057.00
2022-11-05T06:27:36.895Z,98066.00
2022-11-05T06:30:12.184Z,98062.00
2022-11-05T06:32:47.776Z,98065.00
2022-11-05T06:35:22.764Z,98067.00
2022-11-05T06:38:03.715Z,98069.00
2022-11-05T06:40:38.699Z,98082.00
2022-11-05T06:43:14.157Z,98087.00
2022-11-05T06:45:49.459Z,98082.00
2022-11-05T06:48:25.388Z,98091.00
2022-11-05T06:51:00.526Z,98094.00
2022-11-05T06:53:36.561Z,98097.00
2022-11-05T06:56:11.523Z,98101.00
2022-11-05T06:58:46.485Z,98100.00
2022-11-05T07:01:21.486Z,98112.00
2022-11-05T07:03:56.455Z,98116.00
2022-11-05T07:06:36.703Z,98126.00
2022-11-05T07:09:12.382Z,98128.00
2022-11-05T07:11:47.334Z,98133.00
2022-11-05T07:14:22.441Z,98133.00
2022-11-05T07:16:57.782Z,98134.00
2022-11-05T07:19:32.765Z,98138.00
2022-11-05T07:22:07.805Z,98151.00
2022-11-05T07:24:43.666Z,98148.00
2022-11-05T07:27:18.611Z,98159.00
2022-11-05T07:29:53.731Z,98154.00
2022-11-05T07:32:28.624Z,98166.00
2022-11-05T07:35:04.020Z,98174.00
2022-11-05T07:37:47.640Z,98170.00
2022-11-05T07:40:25.780Z,98174.00
2022-11-05T07:43:02.063Z,98181.00
2022-11-05T07:45:36.997Z,98183.00
2022-11-05T07:48:11.916Z,98175.00
2022-11-05T07:50:46.849Z,98183.00
2022-11-05T07:53:21.738Z,98191.00
2022-11-05T07:55:58.843Z,98187.00
2022-11-05T07:58:35.119Z,98198.00
2022-11-05T08:01:10.202Z,98206.00
2022-11-05T08:03:45.310Z,98198.00
2022-11-05T08:06:20.242Z,98206.00
2022-11-05T08:08:55.251Z,98209.00
2022-11-05T08:11:30.161Z,98216.00
2022-11-05T08:14:05.145Z,98215.00
2022-11-05T08:16:40.129Z,98220.00
2022-11-05T08:19:15.047Z,98227.00
2022-11-05T08:21:50.196Z,98236.00
2022-11-05T08:24:25.147Z,98225.00
2022-11-05T08:27:00.042Z,98229.00
2022-11-05T08:29:34.965Z,98236.00
2022-11-05T08:32:09.965Z,98240.00
2022-11-05T08:34:44.888Z,98243.00
2022-11-05T08:37:19.755Z,98243.00
2022-11-05T08:39:54.714Z,98246.00
2022-11-05T08:42:30.624Z,98248.00
2022-11-05T08:45:06.235Z,98248.00
2022-11-05T08:47:41.132Z,98250.00
2022-11-05T08:50:16.808Z,98245.00
2022-11-05T08:52:51.679Z,98250.00
2022-11-05T08:55:27.642Z,98258.00
2022-11-05T08:58:07.579Z,98255.00
2022-11-05T09:00:45.701Z,98262.00
2022-11-05T09:03:20.649Z,98267.00
2022-11-05T09:05:55.661Z,98268.00
2022-11-05T09:08:31.675Z,98273.00
2022-11-05T09:11:07.640Z,98278.00
2022-11-05T09:13:42.673Z,98273.00
2022-11-05T09:16:22.479Z,98271.00
2022-11-05T09:18:57.413Z,98275.00
2022-11-05T09:21:32.805Z,98279.00
2022-11-05T09:24:08.104Z,98281.00
2022-11-05T09:26:43.106Z,98278.00
2022-11-05T09:29:17.977Z,98293.00
2022-11-05T09:31:52.847Z,98282.00
2022-11-05T09:34:28.772Z,98287.00
2022-11-05T09:37:04.075Z,98294.00
2022-11-05T09:39:40.001Z,98296.00
2022-11-05T09:42:18.174Z,98291.00
2022-11-05T09:44:59.445Z,98300.00
2022-11-05T09:47:40.573Z,98299.00
2022-11-05T09:50:32.975Z,98302.00
2022-11-05T09:53:13.369Z,98296.00
2022-11-05T09:56:00.365Z,98300.00
2022-11-05T09:58:43.583Z,98306.00
2022-11-05T10:01:26.165Z,98311.00
2022-11-05T10:04:07.173Z,98304.00
2022-11-05T10:06:51.854Z,98314.00
2022-11-05T10:09:51.608Z,98324.00
2022-11-05T10:12:31.104Z,98331.00
2022-11-05T10:16:09.916Z,98338.00
2022-11-05T10:18:52.578Z,98333.00
2022-11-05T10:21:51.577Z,98338.00
2022-11-05T10:24:23.483Z,98339.00
2022-11-05T10:26:58.678Z,98340.00
2022-11-05T10:29:34.958Z,98343.00
2022-11-05T10:32:35.994Z,98354.00
2022-11-05T10:35:18.816Z,98348.00
2022-11-05T10:37:53.747Z,98349.00
2022-11-05T10:40:42.406Z,98350.00
2022-11-05T10:43:27.457Z,98346.00
2022-11-05T10:46:30.342Z,98352.00
2022-11-05T10:49:34.778Z,98346.00
2022-11-05T10:52:23.965Z,98349.00
2022-11-05T10:55:10.836Z,98343.00
2022-11-05T10:57:49.436Z,98351.00
2022-11-05T11:00:28.344Z,98357.00
2022-11-05T11:03:06.453Z,98357.00
2022-11-05T11:05:41.494Z,98361.00
2022-11-05T11:08:24.174Z,98353.00
2022-11-05T11:11:03.935Z,98356.00
2022-11-05T11:14:03.168Z,98357.00
2022-11-05T11:16:57.342Z,98356.00
2022-11-05T11:19:35.143Z,98361.00
2022-11-05T11:22:15.861Z,98360.00
2022-11-05T11:24:54.054Z,98363.00
2022-11-05T11:27:33.434Z,98368.00
2022-11-05T11:30:18.448Z,98363.00
2022-11-05T11:33:07.172Z,98357.00
2022-11-05T11:35:46.431Z,98359.00
2022-11-05T11:38:33.955Z,98365.00
2022-11-05T11:41:17.773Z,98352.00
2022-11-05T11:44:09.665Z,98371.00
2022-11-05T11:46:49.930Z,98355.00
2022-11-05T11:49:56.196Z,98371.00
2022-11-05T11:52:35.353Z,98367.00
2022-11-05T11:55:13.260Z,98376.00
2022-11-05T11:58:06.616Z,98371.00
2022-11-05T12:00:46.816Z,98368.00
2022-11-05T12:03:50.061Z,98380.00
2022-11-05T12:07:04.858Z,98374.00
2022-11-05T12:10:20.885Z,98369.00
2022-11-05T12:13:20.991Z,98364.00
2022-11-05T12:16:05.108Z,98362.00
2022-11-05T12:18:58.079Z,98361.00
2022-11-05T12:21:52.145Z,98349.00
2022-11-05T12:24:58.021Z,98344.00
2022-11-05T12:28:01.445Z,98343.00
2022-11-05T12:31:23.004Z,98336.00
2022-11-05T12:34:17.613Z,98347.00
2022-11-05T12:37:28.470Z,98345.00
2022-11-05T12:40:51.671Z,98339.00
2022-11-05T12:44:08.134Z,98346.00
2022-11-05T12:46:54.635Z,98347.00
2022-11-05T12:50:01.625Z,98356.00
2022-11-05T12:53:04.865Z,98353.00
2022-11-05T12:55:48.851Z,98357.00
2022-11-05T12:58:48.780Z,98353.00
2022-11-05T13:01:34.583Z,98354.00
2022-11-05T13:04:39.718Z,98360.00
2022-11-05T13:07:27.496Z,98372.00
2022-11-05T13:10:35.513Z,98370.00
2022-11-05T13:13:26.366Z,98366.00
2022-11-05T13:16:15.798Z,98354.00
2022-11-05T13:19:12.149Z,98371.00
2022-11-05T13:22:11.930Z,98362.00
2022-11-05T13:24:51.649Z,98358.00
2022-11-05T13:28:04.985Z,98362.00
2022-11-05T13:30:46.982Z,98353.00
2022-11-05T13:33:37.736Z,98356.00
2022-11-05T13:36:55.480Z,98358.00
2022-11-05T13:39:43.057Z,98367.00
2022-11-05T13:42:54.428Z,98370.00
2022-11-05T13:45:47.657Z,98370.00
2022-11-05T13:48:41.520Z,98380.00
2022-11-05T13:52:08.297Z,98370.00
2022-11-05T13:54:43.105Z,98381.00
2022-11-05T13:57:48.048Z,98375.00
2022-11-05T14:00:26.989Z,98379.00
2022-11-05T14:03:20.212Z,98380.00
2022-11-05T14:06:07.930Z,98381.00
2022-11-05T14:08:46.714Z,98380.00
2022-11-05T14:11:26.173Z,98376.00
2022-11-05T14:14:17.293Z,98380.00
2022-11-05T14:17:13.852Z,98373.00
2022-11-05T14:20:04.456Z,98382.00
2022-11-05T14:22:41.770Z,98383.00
2022-11-05T14:25:19.770Z,98376.00
2022-11-05T14:27:58.160Z,98376.00
2022-11-05T14:30:47.092Z,98373.00
2022-11-05T14:33:25.016Z,98374.00
2022-11-05T14:36:21.419Z,98380.00
2022-11-05T14:39:12.916Z,98386.00
2022-11-05T14:42:16.865Z,98388.00
2022-11-05T14:45:09.887Z,98391.00
2022-11-05T14:47:55.580Z,98394.00
2022-11-05T14:50:39.528Z,98395.00
2022-11-05T14:53:38.281Z,98402.00
2022-11-05T14:56:17.560Z,98398.00
2022-11-05T14:59:24.381Z,98405.00
2022-11-05T15:02:14.616Z,98405.00
2022-11-05T15:04:52.658Z,98409.00
2022-11-05T15:07:37.472Z,98404.00
2022-11-05T15:10:17.569Z,98409.00
2022-11-05T15:13:01.773Z,98411.00
2022-11-05T15:15:44.232Z,98409.00
2022-11-05T15:18:33.429Z,98407.00
2022-11-05T15:21:15.123Z,98407.00
2022-11-05T15:23:56.313Z,98415.00
2022-11-05T15:27:18.572Z,98408.00
2022-11-05T15:29:53.908Z,98413.00
2022-11-05T15:32:28.946Z,98420.00
2022-11-05T15:35:19.093Z,98429.00
2022-11-05T15:38:02.023Z,98419.00
2022-11-05T15:40:37.602Z,98422.00
2022-11-05T15:43:19.404Z,98423.00
2022-11-05T15:46:05.025Z,98420.00
2022-11-05T15:48:40.448Z,98413.00
2022-11-05T15:51:16.977Z,98412.00
2022-11-05T15:56:58.468Z,98416.00
2022-11-05T15:59:35.044Z,98418.00
2022-11-05T16:02:28.717Z,98417.00
2022-11-05T16:05:11.825Z,98412.00
2022-11-05T16:07:48.268Z,98418.00
2022-11-05T16:10:38.108Z,98423.00
2022-11-05T16:13:41.062Z,98426.00
2022-11-05T16:16:16.018Z,98438.00
2022-11-05T16:18:51.493Z,98428.00
2022-11-05T16:21:26.502Z,98433.00
2022-11-05T16:24:01.348Z,98428.00
2022-11-05T16:29:55.469Z,98443.00
2022-11-05T16:32:31.793Z,98443.00
2022-11-05T16:35:15.716Z,98444.00
2022-11-05T16:37:52.653Z,98457.00
2022-11-05T16:40:27.824Z,98463.00
2022-11-05T16:43:17.985Z,98455.00
2022-11-05T16:46:01.007Z,98454.00
2022-11-05T16:48:35.929Z,98464.00
2022-11-05T16:51:11.988Z,98452.00
2022-11-05T16:53:49.203Z,98460.00
2022-11-05T16:56:24.122Z,98452.00
2022-11-05T16:58:59.686Z,98460.00
2022-11-05T17:01:35.900Z,98468.00
2022-11-05T17:04:13.416Z,98468.00
2022-11-05T17:06:49.850Z,98467.00
2022-11-05T17:09:24.815Z,98464.00
2022-11-05T17:12:00.724Z,98471.00
2022-11-05T17:14:35.691Z,98468.00
2022-11-05T17:17:10.855Z,98479.00
2022-11-05T17:19:46.141Z,98469.00
2022-11-05T17:22:21.138Z,98467.00
2022-11-05T17:24:56.104Z,98478.00
2022-11-05T17:27:30.959Z,98475.00
2022-11-05T17:30:07.079Z,98474.00
2022-11-05T17:32:42.035Z,98476.00
2022-11-05T17:35:17.410Z,98491.00
2022-11-05T17:37:52.351Z,98486.00
2022-11-05T17:40:28.375Z,98487.00
2022-11-05T17:43:04.172Z,98477.00
2022-11-05T17:45:45.479Z,98488.00
2022-11-05T17:48:23.688Z,98492.00
2022-11-05T17:50:58.609Z,98484.00
2022-11-05T17:53:33.448Z,98491.00
2022-11-05T17:56:13.773Z,98490.00
2022-11-05T17:58:48.794Z,98500.00
2022-11-05T18:01:30.764Z,98495.00
2022-11-05T18:04:08.846Z,98500.00
2022-11-05T18:06:44.066Z,98507.00
2022-11-05T18:09:20.347Z,98508.00
2022-11-05T18:11:56.748Z,98512.00
2022-11-05T18:14:31.615Z,98529.00
2022-11-05T18:17:06.592Z,98520.00
2022-11-05T18:19:41.500Z,98522.00
2022-11-05T18:22:18.433Z,98530.00
2022-11-05T18:24:54.729Z,98539.00
2022-11-05T18:27:29.680Z,98531.00
2022-11-05T18:30:05.097Z,98540.00
2022-11-05T18:32:40.129Z,98526.00
2022-11-05T18:35:15.161Z,98520.00
2022-11-05T18:37:50.124Z,98526.00
2022-11-05T18:40:25.112Z,98538.00
2022-11-05T18:43:00.054Z,98529.00
2022-11-05T18:45:35.281Z,98521.00
2022-11-05T18:48:11.018Z,98525.00
2022-11-05T18:50:47.558Z,98524.00
2022-11-05T18:53:22.447Z,98529.00
2022-11-05T18:55:57.312Z,98531.00
2022-11-05T18:58:32.249Z,98524.00
2022-11-05T19:01:20.485Z,98519.00
2022-11-05T19:03:57.128Z,98523.00
2022-11-05T19:06:32.198Z,98518.00
2022-11-05T19:09:09.869Z,98517.00
2022-11-05T19:11:44.772Z,98514.00
2022-11-05T19:14:19.808Z,98510.00
2022-11-05T19:16:54.688Z,98510.00
2022-11-05T19:19:29.689Z,98515.00
2022-11-05T19:22:04.878Z,98514.00
2022-11-05T19:24:39.801Z,98514.00
2022-11-05T19:27:14.643Z,98509.00
2022-11-05T19:29:49.725Z,98508.00
2022-11-05T19:32:24.629Z,98515.00
2022-11-05T19:34:59.509Z,98512.00
2022-11-05T19:37:34.438Z,98510.00
2022-11-05T19:40:10.780Z,98517.00
2022-11-05T19:42:46.839Z,98513.00
2022-11-05T19:45:43.530Z,98509.00
2022-11-05T19:48:19.846Z,98518.00
2022-11-05T19:50:55.156Z,98509.00
2022-11-05T19:53:30.039Z,98513.00
2022-11-05T19:56:11.761Z,98515.00
2022-11-05T19:58:49.097Z,98518.00
2022-11-05T20:01:26.423Z,98513.00
2022-11-05T20:04:02.684Z,98516.00
2022-11-05T20:06:40.050Z,98526.00
2022-11-05T20:09:21.530Z,98522.00
2022-11-05T20:11:57.784Z,98523.00
2022-11-05T20:14:33.332Z,98522.00
2022-11-05T20:17:08.309Z,98529.00
2022-11-05T20:19:43.209Z,98539.00
2022-11-05T20:22:18.089Z,98539.00
2022-11-05T20:24:52.956Z,98543.00
2022-11-05T20:27:28.760Z,98550.00
2022-11-05T20:30:04.360Z,98554.00
2022-11-05T20:32:39.253Z,98553.00
2022-11-05T20:35:14.143Z,98543.00
2022-11-05T20:37:53.764Z,98549.00
2022-11-05T20:40:29.111Z,98549.00
2022-11-05T20:43:04.231Z,98542.00
2022-11-05T20:45:39.193Z,98541.00
2022-11-05T20:48:14.425Z,98536.00
2022-11-05T20:50:52.822Z,98540.00
2022-11-05T20:53:27.642Z,98543.00
2022-11-05T20:56:07.630Z,98545.00
2022-11-05T20:58:42.805Z,98547.00
2022-11-05T21:01:18.966Z,98535.00
2022-11-05T21:03:55.489Z,98547.00
2022-11-05T21:06:30.639Z,98538.00
2022-11-05T21:09:06.041Z,98546.00
2022-11-05T21:11:59.550Z,98543.00
2022-11-05T21:14:34.398Z,98541.00
2022-11-05T21:17:11.871Z,98530.00
2022-11-05T21:19:47.007Z,98540.00
2022-11-05T21:22:21.834Z,98547.00
2022-11-05T21:24:56.863Z,98539.00
2022-11-05T21:27:31.684Z,98537.00
2022-11-05T21:30:07.560Z,98541.00
2022-11-05T21:32:42.386Z,98540.00
2022-11-05T21:35:17.360Z,98547.00
2022-11-05T21:37:52.223Z,98550.00
2022-11-05T21:40:27.112Z,98542.00
2022-11-05T21:43:02.151Z,98540.00
2022-11-05T21:45:45.114Z,98539.00
2022-11-05T21:48:19.974Z,98536.00
2022-11-05T21:51:13.288Z,98534.00
2022-11-05T21:54:06.726Z,98539.00
2022-11-05T21:57:03.519Z,98542.00
2022-11-05T21:59:51.390Z,98540.00
2022-11-05T22:02:30.817Z,98538.00
2022-11-05T22:05:06.711Z,98539.00
2022-11-05T22:07:41.613Z,98535.00
2022-11-05T22:10:17.153Z,98525.00
2022-11-05T22:12:51.975Z,98531.00
2022-11-05T22:15:26.825Z,98525.00
2022-11-05T22:18:01.692Z,98526.00
2022-11-05T22:20:39.148Z,98527.00
2022-11-05T22:23:14.005Z,98527.00
2022-11-05T22:25:48.849Z,98524.00
2022-11-05T22:28:23.721Z,98530.00
2022-11-05T22:30:58.627Z,98530.00
2022-11-05T22:33:33.455Z,98528.00
2022-11-05T22:36:09.069Z,98524.00
2022-11-05T22:38:44.122Z,98525.00
2022-11-05T22:41:22.440Z,98520.00
2022-11-05T22:43:58.049Z,98517.00
2022-11-05T22:46:33.195Z,98524.00
2022-11-05T22:49:08.368Z,98535.00
2022-11-05T22:51:43.907Z,98521.00
2022-11-05T22:54:18.824Z,98519.00
2022-11-05T22:56:53.823Z,98515.00
2022-11-05T22:59:28.762Z,98508.00
2022-11-05T23:02:09.244Z,98513.00
2022-11-05T23:04:44.794Z,98511.00
2022-11-05T23:07:38.122Z,98512.00
2022-11-05T23:10:31.384Z,98504.00
2022-11-05T23:13:07.585Z,98508.00
2022-11-05T23:16:00.805Z,98513.00
2022-11-05T23:18:54.500Z,98506.00
2022-11-05T23:21:48.123Z,98504.00
2022-11-05T23:24:22.976Z,98504.00
2022-11-05T23:26:57.975Z,98508.00
2022-11-05T23:29:33.095Z,98511.00
2022-11-05T23:32:28.137Z,98503.00
2022-11-05T23:35:04.336Z,98502.00
2022-11-05T23:37:58.125Z,98501.00
2022-11-05T23:40:55.501Z,98499.00
2022-11-05T23:43:49.092Z,98498.00
2022-11-05T23:46:42.502Z,98477.00
2022-11-05T23:49:17.957Z,98477.00
2022-11-05T23:51:52.812Z,98481.00
2022-11-05T23:54:27.761Z,98479.00
2022-11-05T23:57:02.614Z,98486.00
2022-11-05T23:59:37.465Z,98481.00
